createdAt,value
2023-03-08T00:02:58.227Z,4.60
2023-03-08T00:07:01.378Z,6.40
2023-03-08T00:11:29.061Z,10.20
2023-03-08T00:15:32.145Z,10.30
2023-03-08T00:20:25.125Z,11.10
2023-03-08T00:24:28.103Z,10.20
2023-03-08T00:28:35.381Z,6.00
2023-03-08T00:32:38.404Z,6.50
2023-03-08T00:37:46.460Z,7.80
2023-03-08T00:41:49.474Z,5.10
2023-03-08T00:46:52.471Z,5.60
2023-03-08T00:50:55.534Z,4.80
2023-03-08T00:55:23.503Z,9.50
2023-03-08T00:59:26.501Z,4.40
2023-03-08T01:03:30.947Z,6.80
2023-03-08T01:07:34.112Z,6.10
2023-03-08T01:11:38.089Z,6.50
2023-03-08T01:15:41.168Z,5.80
2023-03-08T01:19:44.155Z,3.50
2023-03-08T01:23:47.922Z,8.70
2023-03-08T01:28:48.697Z,4.60
2023-03-08T01:32:51.864Z,13.00
2023-03-08T01:37:31.030Z,3.10
2023-03-08T01:41:34.096Z,6.00
2023-03-08T01:46:15.742Z,5.80
2023-03-08T01:50:19.905Z,2.90
2023-03-08T01:54:29.015Z,4.60
2023-03-08T01:58:32.242Z,8.30
2023-03-08T02:02:43.540Z,8.50
2023-03-08T02:06:46.643Z,8.50
2023-03-08T02:11:05.583Z,13.80
2023-03-08T02:15:11.668Z,5.00
2023-03-08T02:19:43.913Z,10.30
2023-03-08T02:23:46.939Z,4.30
2023-03-08T02:27:53.856Z,4.20
2023-03-08T02:31:56.890Z,3.50
2023-03-08T02:36:06.317Z,6.40
2023-03-08T02:40:11.478Z,4.30
2023-03-08T02:44:21.038Z,3.80
2023-03-08T02:48:23.975Z,3.80
2023-03-08T02:52:27.068Z,5.80
2023-03-08T02:56:31.091Z,9.20
2023-03-08T03:00:37.089Z,7.30
2023-03-08T03:04:40.043Z,3.90
2023-03-08T03:14:06.327Z,8.30
2023-03-08T03:23:09.070Z,4.70
2023-03-08T03:27:12.348Z,4.30
2023-03-08T03:31:18.637Z,4.40
2023-03-08T03:35:21.963Z,3.80
2023-03-08T03:39:25.500Z,4.70
2023-03-08T03:43:29.770Z,4.20
2023-03-08T03:47:33.935Z,8.60
2023-03-08T03:51:37.205Z,3.60
2023-03-08T03:55:40.394Z,8.00
2023-03-08T03:59:43.512Z,4.70
2023-03-08T04:03:47.876Z,4.50
2023-03-08T04:07:50.981Z,11.60
2023-03-08T04:11:54.257Z,4.10
2023-03-08T04:15:57.405Z,2.60
2023-03-08T04:20:01.275Z,10.60
2023-03-08T04:24:04.785Z,3.70
2023-03-08T04:28:08.225Z,1.80
2023-03-08T04:32:11.461Z,2.20
2023-03-08T04:36:15.994Z,3.80
2023-03-08T04:40:19.773Z,1.30
2023-03-08T04:44:23.029Z,4.20
2023-03-08T04:48:26.657Z,3.50
2023-03-08T04:52:30.599Z,3.70
2023-03-08T04:56:33.712Z,3.40
2023-03-08T05:00:36.861Z,2.60
2023-03-08T05:04:40.093Z,1.60
2023-03-08T05:08:43.617Z,4.30
2023-03-08T05:12:46.977Z,4.30
2023-03-08T05:16:50.647Z,3.90
2023-03-08T05:20:58.655Z,2.90
2023-03-08T05:25:01.921Z,3.00
2023-03-08T05:29:06.654Z,2.50
2023-03-08T05:33:09.860Z,4.10
2023-03-08T05:37:13.067Z,3.40
2023-03-08T05:41:17.073Z,4.70
2023-03-08T05:45:20.492Z,5.20
2023-03-08T05:49:23.688Z,3.70
2023-03-08T05:53:27.009Z,3.80
2023-03-08T05:57:30.060Z,5.20
2023-03-08T06:01:33.201Z,4.60
2023-03-08T06:05:36.512Z,7.30
2023-03-08T06:09:39.645Z,3.70
2023-03-08T06:13:43.206Z,6.80
2023-03-08T06:17:46.325Z,9.10
2023-03-08T06:21:49.680Z,4.00
2023-03-08T06:25:52.952Z,3.70
2023-03-08T06:29:56.188Z,4.70
2023-03-08T06:33:59.502Z,4.20
2023-03-08T06:38:04.312Z,6.00
2023-03-08T06:42:08.094Z,3.60
2023-03-08T06:46:14.501Z,5.00
2023-03-08T06:50:18.173Z,3.60
2023-03-08T06:54:22.130Z,3.10
2023-03-08T06:58:26.722Z,3.90
2023-03-08T07:02:29.800Z,6.50
2023-03-08T07:06:33.911Z,4.10
2023-03-08T07:10:37.210Z,6.80
2023-03-08T07:14:40.376Z,12.80
2023-03-08T07:18:43.578Z,23.80
2023-03-08T07:22:47.493Z,16.30
2023-03-08T07:26:50.828Z,15.50
2023-03-08T07:30:54.125Z,11.40
2023-03-08T07:34:58.100Z,12.70
2023-03-08T07:39:01.194Z,10.80
2023-03-08T07:43:04.643Z,9.80
2023-03-08T07:47:08.565Z,10.40
2023-03-08T07:51:12.494Z,15.70
2023-03-08T07:55:16.417Z,8.40
2023-03-08T07:59:19.944Z,7.70
2023-03-08T08:03:23.462Z,4.40
2023-03-08T08:07:26.586Z,6.30
2023-03-08T08:11:29.829Z,5.60
2023-03-08T08:15:33.395Z,5.70
2023-03-08T08:19:37.970Z,7.80
2023-03-08T08:23:42.567Z,6.60
2023-03-08T08:27:45.752Z,5.80
2023-03-08T08:31:49.024Z,6.50
2023-03-08T08:35:52.140Z,7.40
2023-03-08T08:39:55.230Z,5.90
2023-03-08T08:44:00.293Z,6.00
2023-03-08T08:48:03.781Z,6.80
2023-03-08T08:52:08.562Z,7.00
2023-03-08T08:56:25.608Z,6.70
2023-03-08T09:00:31.024Z,5.10
2023-03-08T09:04:34.564Z,5.50
2023-03-08T09:08:38.292Z,3.00
2023-03-08T09:12:42.984Z,4.50
2023-03-08T09:16:46.467Z,3.70
2023-03-08T09:20:49.955Z,2.90
2023-03-08T09:24:53.809Z,2.50
2023-03-08T09:28:58.630Z,4.00
2023-03-08T09:33:02.229Z,5.60
2023-03-08T09:37:07.679Z,3.00
2023-03-08T09:41:20.961Z,4.10
2023-03-08T09:45:28.391Z,3.00
2023-03-08T09:49:33.759Z,4.00
2023-03-08T09:53:49.398Z,5.40
2023-03-08T09:57:56.306Z,3.80
2023-03-08T10:02:24.461Z,5.60
2023-03-08T10:07:12.338Z,5.20
2023-03-08T10:11:28.886Z,5.80
2023-03-08T10:15:36.582Z,5.10
2023-03-08T10:19:51.667Z,3.20
2023-03-08T10:24:15.995Z,6.10
2023-03-08T10:28:22.085Z,5.80
2023-03-08T10:32:26.667Z,4.00
2023-03-08T10:36:29.829Z,6.10
2023-03-08T10:40:32.821Z,12.40
2023-03-08T10:44:58.223Z,5.50
2023-03-08T10:49:16.992Z,7.20
2023-03-08T10:53:20.910Z,10.70
2023-03-08T10:57:26.209Z,17.50
2023-03-08T11:01:32.579Z,6.90
2023-03-08T11:05:35.635Z,7.30
2023-03-08T11:09:38.691Z,9.00
2023-03-08T11:13:47.200Z,8.60
2023-03-08T11:18:07.611Z,13.00
2023-03-08T11:22:44.567Z,8.50
2023-03-08T11:27:14.578Z,12.30
2023-03-08T11:31:52.821Z,8.70
2023-03-08T11:36:04.938Z,9.90
2023-03-08T11:40:22.594Z,12.80
2023-03-08T11:44:40.675Z,17.40
2023-03-08T11:48:55.919Z,48.30
2023-03-08T11:53:30.556Z,21.40
2023-03-08T11:57:38.920Z,64.70
2023-03-08T12:02:10.419Z,25.40
2023-03-08T12:06:41.355Z,21.10
2023-03-08T12:10:56.816Z,30.30
2023-03-08T12:15:28.458Z,15.80
2023-03-08T12:19:31.452Z,14.20
2023-03-08T12:24:03.903Z,22.30
2023-03-08T12:28:34.284Z,18.40
2023-03-08T12:32:39.851Z,7.20
2023-03-08T12:36:44.069Z,8.30
2023-03-08T12:40:50.913Z,8.50
2023-03-08T12:44:54.035Z,13.90
2023-03-08T12:48:57.270Z,27.50
2023-03-08T12:53:00.400Z,12.90
2023-03-08T12:57:14.842Z,15.20
2023-03-08T13:01:32.752Z,11.80
2023-03-08T13:05:38.165Z,11.10
2023-03-08T13:09:47.226Z,10.70
2023-03-08T13:13:58.746Z,9.60
2023-03-08T13:18:04.033Z,11.30
2023-03-08T13:22:18.426Z,14.80
2023-03-08T13:26:49.430Z,18.20
2023-03-08T13:30:58.921Z,17.10
2023-03-08T13:35:04.419Z,17.20
2023-03-08T13:39:19.017Z,14.00
2023-03-08T13:43:23.877Z,18.60
2023-03-08T13:47:33.199Z,17.40
2023-03-08T13:51:36.348Z,63.50
2023-03-08T13:55:43.857Z,24.60
2023-03-08T14:00:01.796Z,15.10
2023-03-08T14:04:11.959Z,17.00
2023-03-08T14:08:27.017Z,16.50
2023-03-08T14:12:32.985Z,13.30
2023-03-08T14:16:39.859Z,14.00
2023-03-08T14:20:43.794Z,12.50
2023-03-08T14:24:59.662Z,13.20
2023-03-08T14:29:34.693Z,16.80
2023-03-08T14:33:42.521Z,17.90
2023-03-08T14:37:47.029Z,17.60
2023-03-08T14:41:50.762Z,21.30
2023-03-08T14:45:58.494Z,20.30
2023-03-08T14:50:07.871Z,21.10
2023-03-08T14:54:42.204Z,15.50
2023-03-08T14:58:49.395Z,15.60
2023-03-08T15:02:53.441Z,18.10
2023-03-08T15:06:56.901Z,21.70
2023-03-08T15:11:00.444Z,26.50
2023-03-08T15:15:13.116Z,23.80
2023-03-08T15:19:16.849Z,18.70
2023-03-08T15:23:24.122Z,21.90
2023-03-08T15:27:30.387Z,20.30
2023-03-08T15:31:34.113Z,20.20
2023-03-08T15:35:40.983Z,21.40
2023-03-08T15:39:45.473Z,20.50
2023-03-08T15:43:48.977Z,26.60
2023-03-08T15:47:59.371Z,22.50
2023-03-08T15:52:02.736Z,26.60
2023-03-08T15:56:06.349Z,22.10
2023-03-08T16:00:13.437Z,19.60
2023-03-08T16:04:17.133Z,26.70
2023-03-08T16:08:25.955Z,29.80
2023-03-08T16:12:29.666Z,30.40
2023-03-08T16:16:44.779Z,24.70
2023-03-08T16:20:50.036Z,20.00
2023-03-08T16:24:53.442Z,25.30
2023-03-08T16:28:57.326Z,27.20
2023-03-08T16:33:00.604Z,28.50
2023-03-08T16:37:05.690Z,32.40
2023-03-08T16:41:13.243Z,29.40
2023-03-08T16:45:17.504Z,27.50
2023-03-08T16:49:22.910Z,25.50
2023-03-08T16:53:27.575Z,26.50
2023-03-08T16:57:31.068Z,22.80
2023-03-08T17:01:35.672Z,25.70
2023-03-08T17:05:40.831Z,32.30
2023-03-08T17:09:44.073Z,26.70
2023-03-08T17:13:52.283Z,20.50
2023-03-08T17:17:57.672Z,27.20
2023-03-08T17:22:01.644Z,27.30
2023-03-08T17:26:09.616Z,28.20
2023-03-08T17:30:14.428Z,23.00
2023-03-08T17:34:20.892Z,28.30
2023-03-08T17:38:24.092Z,32.30
2023-03-08T17:42:27.410Z,30.70
2023-03-08T17:46:31.179Z,30.90
2023-03-08T17:50:35.443Z,35.10
2023-03-08T17:54:38.865Z,36.10
2023-03-08T17:58:42.699Z,32.60
2023-03-08T18:02:46.739Z,33.90
2023-03-08T18:06:50.646Z,26.70
2023-03-08T18:10:54.296Z,33.80
2023-03-08T18:14:58.024Z,22.70
2023-03-08T18:19:04.300Z,32.90
2023-03-08T18:23:07.710Z,32.70
2023-03-08T18:27:11.257Z,29.40
2023-03-08T18:31:23.595Z,27.00
2023-03-08T18:35:26.752Z,32.50
2023-03-08T18:39:30.111Z,30.60
2023-03-08T18:43:33.494Z,30.00
2023-03-08T18:47:37.850Z,36.00
2023-03-08T18:51:42.798Z,35.70
2023-03-08T18:56:00.736Z,36.40
2023-03-08T19:00:10.657Z,32.30
2023-03-08T19:04:14.632Z,44.80
2023-03-08T19:08:19.659Z,37.20
2023-03-08T19:12:23.269Z,32.60
2023-03-08T19:16:29.518Z,34.00
2023-03-08T19:20:36.655Z,43.30
2023-03-08T19:24:39.689Z,40.90
2023-03-08T19:28:42.921Z,31.70
2023-03-08T19:32:48.914Z,32.10
2023-03-08T19:36:52.508Z,27.80
2023-03-08T19:40:56.017Z,27.80
2023-03-08T19:44:59.132Z,27.90
2023-03-08T19:49:02.558Z,32.80
2023-03-08T19:53:06.430Z,33.40
2023-03-08T19:57:11.533Z,35.60
2023-03-08T20:01:18.808Z,31.70
2023-03-08T20:05:22.531Z,32.10
2023-03-08T20:09:25.647Z,34.50
2023-03-08T20:13:30.023Z,29.30
2023-03-08T20:17:33.786Z,37.50
2023-03-08T20:21:37.517Z,33.90
2023-03-08T20:25:43.772Z,46.40
2023-03-08T20:29:46.781Z,48.30
2023-03-08T20:33:53.460Z,49.40
2023-03-08T20:42:00.465Z,49.70
2023-03-08T20:46:09.538Z,49.70
2023-03-08T20:50:12.996Z,53.80
2023-03-08T20:54:16.082Z,57.00
2023-03-08T20:58:19.209Z,45.70
2023-03-08T21:02:22.838Z,53.80
2023-03-08T21:06:28.896Z,48.30
2023-03-08T21:10:36.758Z,60.00
2023-03-08T21:14:42.369Z,49.30
2023-03-08T21:18:49.436Z,47.40
2023-03-08T21:22:53.552Z,56.60
2023-03-08T21:26:57.002Z,46.10
2023-03-08T21:31:00.618Z,55.80
2023-03-08T21:35:04.390Z,52.60
2023-03-08T21:39:08.517Z,55.80
2023-03-08T21:43:12.256Z,69.20
2023-03-08T21:47:15.480Z,53.90
2023-03-08T21:51:20.171Z,55.20
2023-03-08T21:55:23.707Z,50.50
2023-03-08T21:59:29.070Z,50.80
2023-03-08T22:03:33.605Z,57.10
2023-03-08T22:07:36.942Z,54.50
2023-03-08T22:11:40.498Z,65.50
2023-03-08T22:15:44.166Z,50.70
2023-03-08T22:19:48.760Z,48.70
2023-03-08T22:23:53.412Z,46.70
2023-03-08T22:27:57.101Z,52.40
2023-03-08T22:32:01.236Z,63.90
2023-03-08T22:36:09.987Z,71.70
2023-03-08T22:40:13.537Z,57.00
2023-03-08T22:44:17.078Z,51.20
2023-03-08T22:48:20.442Z,54.10
2023-03-08T22:52:24.539Z,65.30
2023-03-08T22:56:33.443Z,66.30
2023-03-08T23:00:36.904Z,60.90
2023-03-08T23:04:40.837Z,54.30
2023-03-08T23:08:44.252Z,59.60
2023-03-08T23:12:47.734Z,60.70
2023-03-08T23:16:51.316Z,49.50
2023-03-08T23:20:54.715Z,65.10
2023-03-08T23:25:25.507Z,61.40
2023-03-08T23:29:28.830Z,53.00
2023-03-08T23:33:32.359Z,61.40
2023-03-08T23:37:36.657Z,74.90
2023-03-08T23:41:41.223Z,54.20
2023-03-08T23:45:44.513Z,67.90
2023-03-08T23:49:48.937Z,79.70
2023-03-08T23:53:53.968Z,62.80
2023-03-08T23:57:57.403Z,63.00
